createdAt,value
2022-09-27T00:00:26.002Z,10.80
2022-09-27T00:05:27.725Z,10.80
2022-09-27T00:10:29.637Z,10.80
2022-09-27T00:15:31.436Z,10.70
2022-09-27T00:20:34.925Z,10.70
2022-09-27T00:25:36.656Z,10.70
2022-09-27T00:30:42.280Z,10.70
2022-09-27T00:35:44.632Z,10.60
2022-09-27T00:40:47.582Z,10.50
2022-09-27T00:45:58.210Z,10.40
2022-09-27T00:51:05.392Z,10.40
2022-09-27T00:56:11.605Z,10.40
2022-09-27T01:01:16.291Z,10.30
2022-09-27T01:06:20.568Z,10.30
2022-09-27T01:11:25.058Z,10.30
2022-09-27T01:16:35.908Z,10.30
2022-09-27T01:21:37.620Z,10.30
2022-09-27T01:27:00.822Z,10.30
2022-09-27T01:32:05.271Z,10.20
2022-09-27T01:37:16.008Z,10.10
2022-09-27T01:42:47.535Z,10.10
2022-09-27T01:47:57.867Z,10.10
2022-09-27T01:53:06.262Z,10.10
2022-09-27T01:58:17.987Z,10.10
2022-09-27T02:03:28.869Z,10.10
2022-09-27T02:08:40.053Z,10.00
2022-09-27T02:13:53.410Z,10.00
2022-09-27T02:19:24.501Z,10.00
2022-09-27T02:24:38.849Z,10.00
2022-09-27T02:29:47.196Z,10.00
2022-09-27T02:34:50.650Z,10.00
2022-09-27T02:39:52.464Z,9.90
2022-09-27T02:44:54.521Z,9.90
2022-09-27T02:50:02.226Z,9.90
2022-09-27T02:55:32.373Z,9.90
2022-09-27T03:00:44.932Z,9.90
2022-09-27T03:06:07.682Z,9.90
2022-09-27T03:11:09.458Z,9.90
2022-09-27T03:16:11.930Z,9.90
2022-09-27T03:21:13.561Z,9.90
2022-09-27T03:26:15.276Z,9.90
2022-09-27T03:31:17.007Z,9.80
2022-09-27T03:36:18.829Z,9.90
2022-09-27T03:41:20.813Z,9.90
2022-09-27T03:46:22.627Z,9.80
2022-09-27T03:51:24.397Z,9.80
2022-09-27T03:56:26.045Z,9.80
2022-09-27T04:01:28.881Z,9.70
2022-09-27T04:06:31.058Z,9.70
2022-09-27T04:11:32.823Z,9.60
2022-09-27T04:16:35.486Z,9.60
2022-09-27T04:21:37.238Z,9.40
2022-09-27T04:26:42.567Z,9.50
2022-09-27T04:31:44.562Z,9.40
2022-09-27T04:36:46.307Z,9.40
2022-09-27T04:41:47.946Z,9.40
2022-09-27T04:46:49.628Z,9.30
2022-09-27T04:51:51.286Z,9.20
2022-09-27T04:56:53.113Z,9.20
2022-09-27T05:01:55.217Z,9.20
2022-09-27T05:06:57.427Z,9.10
2022-09-27T05:11:59.246Z,9.10
2022-09-27T05:17:01.014Z,9.00
2022-09-27T05:22:02.765Z,9.10
2022-09-27T05:27:09.060Z,9.00
2022-09-27T05:32:10.946Z,9.00
2022-09-27T05:37:13.076Z,9.00
2022-09-27T05:42:15.435Z,9.00
2022-09-27T05:47:17.181Z,8.90
2022-09-27T05:52:20.192Z,8.90
2022-09-27T05:57:23.284Z,9.00
2022-09-27T06:02:25.342Z,8.90
2022-09-27T06:07:29.588Z,9.00
2022-09-27T06:12:31.499Z,9.00
2022-09-27T06:17:35.111Z,9.00
2022-09-27T06:22:36.984Z,9.00
2022-09-27T06:27:38.661Z,9.00
2022-09-27T06:32:40.406Z,9.00
2022-09-27T06:37:42.077Z,8.90
2022-09-27T06:42:44.068Z,9.00
2022-09-27T06:47:46.749Z,9.00
2022-09-27T06:52:49.757Z,9.10
2022-09-27T06:58:17.276Z,9.10
2022-09-27T07:03:20.124Z,9.20
2022-09-27T07:08:21.850Z,9.20
2022-09-27T07:13:23.687Z,9.30
2022-09-27T07:18:25.420Z,9.40
2022-09-27T07:23:27.500Z,9.50
2022-09-27T07:28:29.208Z,9.50
2022-09-27T07:33:31.800Z,9.60
2022-09-27T07:38:33.501Z,9.60
2022-09-27T07:43:35.188Z,9.60
2022-09-27T07:48:37.109Z,9.70
2022-09-27T07:53:38.840Z,9.70
2022-09-27T07:58:40.631Z,9.80
2022-09-27T08:03:42.381Z,10.00
2022-09-27T08:08:44.481Z,10.00
2022-09-27T08:13:46.346Z,10.10
2022-09-27T08:18:48.072Z,10.10
2022-09-27T08:23:49.764Z,10.10
2022-09-27T08:28:51.613Z,10.20
2022-09-27T08:33:53.361Z,10.20
2022-09-27T08:38:58.977Z,10.30
2022-09-27T08:44:25.109Z,10.40
2022-09-27T08:49:41.781Z,10.40
2022-09-27T08:54:44.988Z,10.40
2022-09-27T09:00:01.441Z,10.50
2022-09-27T09:05:29.395Z,10.60
2022-09-27T09:11:06.999Z,10.60
2022-09-27T09:16:31.300Z,10.80
2022-09-27T09:21:43.410Z,10.80
2022-09-27T09:26:51.044Z,10.80
2022-09-27T09:32:24.141Z,10.70
2022-09-27T09:37:44.691Z,10.70
2022-09-27T09:42:58.333Z,10.80
2022-09-27T09:48:02.913Z,10.90
2022-09-27T09:53:23.813Z,11.00
2022-09-27T09:58:49.186Z,11.20
2022-09-27T10:03:51.006Z,11.50
2022-09-27T10:08:55.592Z,11.60
2022-09-27T10:13:57.277Z,11.60
2022-09-27T10:19:02.740Z,11.50
2022-09-27T10:24:18.450Z,11.60
2022-09-27T10:29:20.567Z,11.70
2022-09-27T10:34:29.693Z,11.80
2022-09-27T10:39:31.628Z,11.80
2022-09-27T10:44:33.320Z,11.80
2022-09-27T10:49:38.854Z,11.70
2022-09-27T10:54:42.380Z,11.80
2022-09-27T10:59:54.308Z,11.80
2022-09-27T11:05:11.244Z,11.80
2022-09-27T11:10:25.069Z,11.80
2022-09-27T11:15:30.953Z,11.90
2022-09-27T11:20:46.202Z,12.00
2022-09-27T11:26:01.037Z,12.00
2022-09-27T11:31:17.657Z,11.90
2022-09-27T11:36:21.386Z,11.90
2022-09-27T11:59:54.376Z,11.90
2022-09-27T12:05:21.075Z,11.90
2022-09-27T12:10:23.009Z,11.90
2022-09-27T12:15:27.440Z,11.90
2022-09-27T12:20:33.557Z,11.90
2022-09-27T12:25:40.265Z,11.90
2022-09-27T12:30:46.428Z,11.80
2022-09-27T12:35:53.010Z,11.80
2022-09-27T12:40:58.688Z,11.80
2022-09-27T12:46:15.768Z,11.80
2022-09-27T12:51:22.687Z,11.90
2022-09-27T12:56:55.748Z,11.90
2022-09-27T13:02:09.401Z,12.00
2022-09-27T13:07:11.173Z,12.00
2022-09-27T13:12:19.061Z,12.20
2022-09-27T13:17:43.335Z,12.30
2022-09-27T13:22:44.979Z,12.30
2022-09-27T13:27:46.661Z,12.30
2022-09-27T13:33:10.039Z,12.40
2022-09-27T13:38:24.833Z,12.50
2022-09-27T13:43:58.333Z,12.40
2022-09-27T13:49:19.865Z,12.40
2022-09-27T13:54:41.836Z,12.30
2022-09-27T13:59:52.779Z,12.20
2022-09-27T14:04:58.504Z,12.10
2022-09-27T14:10:01.003Z,12.00
2022-09-27T14:15:04.138Z,11.80
2022-09-27T14:20:08.369Z,11.70
2022-09-27T14:25:17.985Z,11.60
2022-09-27T14:30:25.633Z,11.40
2022-09-27T14:35:51.832Z,11.40
2022-09-27T14:40:53.474Z,11.30
2022-09-27T14:46:09.484Z,11.30
2022-09-27T14:51:14.661Z,11.30
2022-09-27T14:56:31.797Z,11.40
2022-09-27T15:01:35.014Z,11.40
2022-09-27T15:06:37.209Z,11.40
2022-09-27T15:11:44.453Z,11.40
2022-09-27T15:16:48.433Z,11.40
2022-09-27T15:21:50.193Z,11.40
2022-09-27T15:26:51.932Z,11.40
2022-09-27T15:32:15.784Z,11.50
2022-09-27T15:37:38.446Z,11.40
2022-09-27T15:43:00.964Z,11.50
2022-09-27T15:48:16.336Z,11.40
2022-09-27T15:53:36.218Z,11.20
2022-09-27T15:58:37.873Z,10.90
2022-09-27T16:03:41.075Z,10.50
2022-09-27T16:08:44.307Z,10.40
2022-09-27T16:13:46.188Z,10.20
2022-09-27T16:18:48.436Z,10.10
2022-09-27T16:23:50.096Z,10.10
2022-09-27T16:28:53.001Z,10.00
2022-09-27T16:33:54.938Z,10.00
2022-09-27T16:38:56.571Z,9.90
2022-09-27T16:43:58.205Z,9.90
2022-09-27T16:48:59.964Z,9.90
2022-09-27T16:54:02.187Z,9.80
2022-09-27T16:59:04.885Z,9.80
2022-09-27T17:04:07.214Z,9.70
2022-09-27T17:09:13.243Z,9.60
2022-09-27T17:14:17.291Z,9.60
2022-09-27T17:19:19.111Z,9.60
2022-09-27T17:24:20.872Z,9.60
2022-09-27T17:29:22.514Z,9.60
2022-09-27T17:34:24.306Z,9.60
2022-09-27T17:39:25.998Z,9.60
2022-09-27T17:44:27.788Z,9.60
2022-09-27T17:49:48.276Z,9.60
2022-09-27T17:54:51.598Z,9.60
2022-09-27T17:59:53.640Z,9.60
2022-09-27T18:04:55.291Z,9.50
2022-09-27T18:09:57.105Z,9.40
2022-09-27T18:14:59.126Z,9.50
2022-09-27T18:20:02.301Z,9.40
2022-09-27T18:25:05.385Z,9.40
2022-09-27T18:30:07.797Z,9.40
2022-09-27T18:35:10.012Z,9.40
2022-09-27T18:40:11.724Z,9.40
2022-09-27T18:45:13.411Z,9.40
2022-09-27T18:50:15.100Z,9.40
2022-09-27T18:55:16.731Z,9.30
2022-09-27T19:00:18.430Z,9.40
2022-09-27T19:05:20.133Z,9.40
2022-09-27T19:10:21.737Z,9.40
2022-09-27T19:15:24.581Z,9.30
2022-09-27T19:20:26.252Z,9.40
2022-09-27T19:25:28.120Z,9.40
2022-09-27T19:30:29.781Z,9.40
2022-09-27T19:35:31.456Z,9.40
2022-09-27T19:40:39.409Z,9.40
2022-09-27T19:45:41.276Z,9.30
2022-09-27T19:50:43.197Z,9.30
2022-09-27T19:55:44.911Z,9.30
2022-09-27T20:00:47.692Z,9.30
2022-09-27T20:05:57.356Z,9.20
2022-09-27T20:11:05.852Z,9.10
2022-09-27T20:16:13.942Z,9.10
2022-09-27T20:21:17.220Z,9.10
2022-09-27T20:26:20.896Z,9.10
2022-09-27T20:31:28.295Z,9.20
2022-09-27T20:36:32.700Z,9.20
2022-09-27T20:41:35.924Z,9.20
2022-09-27T20:46:38.871Z,9.20
2022-09-27T20:51:42.491Z,9.20
2022-09-27T20:56:48.481Z,9.20
2022-09-27T21:01:52.234Z,9.30
2022-09-27T21:06:54.061Z,9.30
2022-09-27T21:11:55.782Z,9.30
2022-09-27T21:17:01.654Z,9.40
2022-09-27T21:22:03.753Z,9.40
2022-09-27T21:27:05.421Z,9.40
2022-09-27T21:32:07.110Z,9.50
2022-09-27T21:37:09.024Z,9.50
2022-09-27T21:42:10.700Z,9.50
2022-09-27T21:47:13.099Z,9.60
2022-09-27T21:52:14.695Z,9.60
2022-09-27T21:57:16.347Z,9.60
2022-09-27T22:02:21.103Z,9.60
2022-09-27T22:07:22.802Z,9.70
2022-09-27T22:12:24.448Z,9.70
2022-09-27T22:17:26.103Z,9.70
2022-09-27T22:22:27.789Z,9.80
2022-09-27T22:27:29.488Z,9.70
2022-09-27T22:32:31.419Z,9.70
2022-09-27T22:37:33.157Z,9.70
2022-09-27T22:42:34.753Z,9.70
2022-09-27T22:47:36.966Z,9.70
2022-09-27T22:52:38.588Z,9.70
2022-09-27T22:57:40.389Z,9.70
2022-09-27T23:02:42.116Z,9.70
2022-09-27T23:07:47.435Z,9.70
2022-09-27T23:12:53.689Z,9.70
2022-09-27T23:17:55.336Z,9.70
2022-09-27T23:22:57.350Z,9.70
2022-09-27T23:27:59.383Z,9.70
2022-09-27T23:33:01.020Z,9.70
2022-09-27T23:38:02.759Z,9.70
2022-09-27T23:43:04.544Z,9.70
2022-09-27T23:48:06.367Z,9.70
2022-09-27T23:53:08.064Z,9.70
2022-09-27T23:58:10.542Z,9.70
